ASL66K EKCH-LYBE
Flight info
| Callsign | ASL66K |
|---|---|
| Flight time | 1h 46m |
| Altitude | 37000 |
| Route | SIMEG Z493 BILRA DCT DESEN DCT MAKAL DCT MOMEP DCT EBORO DCT PARAK DCT TISAK |
| Aircraft | A320/M-SDE3FGHIRWY/LB1 |
Departure
| Time | 2026-04-23 11:09 |
|---|---|
| Airport | Copenhagen Kastrup Airport (EKCH) |
Arrival
| Time | 2026-04-23 12:55 |
|---|---|
| Airport | Belgrade Nikola Tesla Airport (LYBE) |
| Time | Latitude | Longitude | Altitude | Speed | Heading |
|---|---|---|---|---|---|
| 2026-04-23 10:35 | 55.62645 | 12.65040 | 27 ft | 0 kts | 278° |
| 2026-04-23 10:57 | 55.62645 | 12.65047 | 24 ft | 3 kts | 278° |
| 2026-04-23 10:57 | 55.62642 | 12.65084 | 7 ft | 3 kts | 278° |
| 2026-04-23 10:57 | 55.62641 | 12.65097 | 14 ft | 0 kts | 278° |
| 2026-04-23 10:57 | 55.62639 | 12.65112 | 27 ft | 3 kts | 282° |
| 2026-04-23 10:58 | 55.62634 | 12.65146 | 28 ft | 3 kts | 303° |
| 2026-04-23 10:58 | 55.62621 | 12.65173 | 28 ft | 3 kts | 334° |
| 2026-04-23 10:58 | 55.62616 | 12.65181 | 28 ft | 0 kts | 11° |
| 2026-04-23 11:01 | 55.62617 | 12.65182 | 24 ft | 1 kts | 11° |
| 2026-04-23 11:01 | 55.62632 | 12.65189 | 24 ft | 3 kts | 21° |
| 2026-04-23 11:01 | 55.62652 | 12.65232 | 25 ft | 6 kts | 64° |
| 2026-04-23 11:01 | 55.62642 | 12.65308 | 25 ft | 8 kts | 137° |
| 2026-04-23 11:02 | 55.62584 | 12.65322 | 24 ft | 9 kts | 177° |
| 2026-04-23 11:02 | 55.62512 | 12.65324 | 24 ft | 11 kts | 180° |
| 2026-04-23 11:02 | 55.62427 | 12.65324 | 24 ft | 13 kts | 179° |
| 2026-04-23 11:02 | 55.62337 | 12.65332 | 24 ft | 7 kts | 179° |
| 2026-04-23 11:03 | 55.62294 | 12.65279 | 24 ft | 9 kts | 246° |
| 2026-04-23 11:03 | 55.62261 | 12.65200 | 24 ft | 9 kts | 187° |
| 2026-04-23 11:03 | 55.62194 | 12.65164 | 26 ft | 11 kts | 214° |
| 2026-04-23 11:03 | 55.62126 | 12.65082 | 26 ft | 13 kts | 213° |
| 2026-04-23 11:04 | 55.62047 | 12.64992 | 24 ft | 14 kts | 212° |
| 2026-04-23 11:04 | 55.61958 | 12.64886 | 23 ft | 17 kts | 214° |
| 2026-04-23 11:04 | 55.61858 | 12.64774 | 24 ft | 18 kts | 214° |
| 2026-04-23 11:04 | 55.61751 | 12.64651 | 24 ft | 19 kts | 213° |
| 2026-04-23 11:05 | 55.61636 | 12.64520 | 26 ft | 20 kts | 213° |
| 2026-04-23 11:05 | 55.61514 | 12.64378 | 25 ft | 22 kts | 213° |
| 2026-04-23 11:05 | 55.61380 | 12.64224 | 24 ft | 24 kts | 212° |
| 2026-04-23 11:05 | 55.61236 | 12.64059 | 24 ft | 25 kts | 212° |
| 2026-04-23 11:06 | 55.60921 | 12.63695 | 24 ft | 29 kts | 213° |
| 2026-04-23 11:06 | 55.60781 | 12.63538 | 24 ft | 18 kts | 212° |
| 2026-04-23 11:06 | 55.60674 | 12.63414 | 24 ft | 19 kts | 213° |
| 2026-04-23 11:07 | 55.60570 | 12.63257 | 24 ft | 11 kts | 221° |
| 2026-04-23 11:07 | 55.60524 | 12.63219 | 24 ft | 8 kts | 187° |
| 2026-04-23 11:07 | 55.60467 | 12.63259 | 24 ft | 10 kts | 134° |
| 2026-04-23 11:07 | 55.60422 | 12.63361 | 24 ft | 11 kts | 128° |
| 2026-04-23 11:08 | 55.60418 | 12.63466 | 26 ft | 2 kts | 43° |
| 2026-04-23 11:08 | 55.60423 | 12.63473 | 25 ft | 10 kts | 42° |
| 2026-04-23 11:08 | 55.60662 | 12.63844 | 29 ft | 78 kts | 41° |
| 2026-04-23 11:08 | 55.61207 | 12.64687 | 24 ft | 128 kts | 41° |
| 2026-04-23 11:09 | 55.61960 | 12.65829 | 278 ft | 146 kts | 38° |
| 2026-04-23 11:09 | 55.62713 | 12.66991 | 948 ft | 142 kts | 34° |
| 2026-04-23 11:09 | 55.63452 | 12.68159 | 1587 ft | 144 kts | 34° |
| 2026-04-23 11:09 | 55.64251 | 12.69390 | 1909 ft | 161 kts | 34° |
| 2026-04-23 11:10 | 55.65146 | 12.70722 | 2264 ft | 176 kts | 37° |
| 2026-04-23 11:10 | 55.66081 | 12.72275 | 2645 ft | 191 kts | 38° |
| 2026-04-23 11:10 | 55.67106 | 12.73862 | 2981 ft | 206 kts | 36° |
| 2026-04-23 11:10 | 55.68288 | 12.75559 | 3231 ft | 232 kts | 34° |
| 2026-04-23 11:11 | 55.69441 | 12.77756 | 3779 ft | 255 kts | 54° |
| 2026-04-23 11:11 | 55.70030 | 12.80812 | 4576 ft | 272 kts | 78° |
| 2026-04-23 11:11 | 55.69819 | 12.84203 | 5472 ft | 286 kts | 107° |
| 2026-04-23 11:11 | 55.68705 | 12.87155 | 6389 ft | 295 kts | 136° |
| 2026-04-23 11:12 | 55.66917 | 12.88971 | 7222 ft | 300 kts | 159° |
| 2026-04-23 11:12 | 55.64943 | 12.90222 | 8041 ft | 303 kts | 162° |
| 2026-04-23 11:12 | 55.62866 | 12.90943 | 8804 ft | 306 kts | 179° |
| 2026-04-23 11:12 | 55.60743 | 12.90636 | 9559 ft | 308 kts | 196° |
| 2026-04-23 11:13 | 55.58747 | 12.89318 | 10293 ft | 307 kts | 213° |
| 2026-04-23 11:13 | 55.56978 | 12.87061 | 10690 ft | 318 kts | 229° |
| 2026-04-23 11:13 | 55.55388 | 12.84166 | 10858 ft | 339 kts | 230° |
| 2026-04-23 11:13 | 55.53567 | 12.81356 | 11271 ft | 356 kts | 217° |
| 2026-04-23 11:14 | 55.51342 | 12.79308 | 11850 ft | 366 kts | 202° |
| 2026-04-23 11:14 | 55.48844 | 12.78251 | 12471 ft | 374 kts | 187° |
| 2026-04-23 11:14 | 55.46225 | 12.78312 | 13094 ft | 380 kts | 173° |
| 2026-04-23 11:14 | 55.43593 | 12.78896 | 13732 ft | 383 kts | 173° |
| 2026-04-23 11:15 | 55.40934 | 12.79483 | 14323 ft | 387 kts | 172° |
| 2026-04-23 11:15 | 55.38345 | 12.80560 | 14859 ft | 389 kts | 158° |
| 2026-04-23 11:15 | 55.35948 | 12.82760 | 15435 ft | 390 kts | 142° |
| 2026-04-23 11:15 | 55.33952 | 12.85956 | 15955 ft | 388 kts | 126° |
| 2026-04-23 11:16 | 55.32496 | 12.89910 | 16500 ft | 385 kts | 111° |
| 2026-04-23 11:16 | 55.31647 | 12.94322 | 17036 ft | 380 kts | 97° |
| 2026-04-23 11:16 | 55.31123 | 12.98879 | 17611 ft | 382 kts | 96° |
| 2026-04-23 11:16 | 55.30592 | 13.03464 | 18191 ft | 385 kts | 96° |
| 2026-04-23 11:17 | 55.30052 | 13.08078 | 18734 ft | 387 kts | 96° |
| 2026-04-23 11:17 | 55.29503 | 13.12720 | 19232 ft | 390 kts | 97° |
| 2026-04-23 11:17 | 55.28948 | 13.17393 | 19730 ft | 393 kts | 97° |
| 2026-04-23 11:17 | 55.28384 | 13.22098 | 20236 ft | 395 kts | 97° |
| 2026-04-23 11:18 | 55.27815 | 13.26833 | 20731 ft | 398 kts | 97° |
| 2026-04-23 11:18 | 55.27243 | 13.31600 | 21193 ft | 401 kts | 97° |
| 2026-04-23 11:18 | 55.26665 | 13.36398 | 21701 ft | 404 kts | 96° |
| 2026-04-23 11:18 | 55.26081 | 13.41227 | 22156 ft | 406 kts | 96° |
| 2026-04-23 11:19 | 55.25389 | 13.46058 | 22594 ft | 413 kts | 103° |
| 2026-04-23 11:19 | 55.24227 | 13.50714 | 23025 ft | 422 kts | 114° |
| 2026-04-23 11:19 | 55.22576 | 13.55028 | 23459 ft | 431 kts | 125° |
| 2026-04-23 11:19 | 55.20601 | 13.59022 | 23871 ft | 435 kts | 127° |
| 2026-04-23 11:20 | 55.18604 | 13.63026 | 24246 ft | 438 kts | 127° |
| 2026-04-23 11:20 | 55.16600 | 13.67050 | 24618 ft | 440 kts | 127° |
| 2026-04-23 11:20 | 55.14590 | 13.71096 | 24983 ft | 442 kts | 126° |
| 2026-04-23 11:20 | 55.12569 | 13.75163 | 25350 ft | 444 kts | 126° |
| 2026-04-23 11:21 | 55.10538 | 13.79244 | 25720 ft | 446 kts | 126° |
| 2026-04-23 11:21 | 55.08494 | 13.83340 | 26095 ft | 449 kts | 126° |
| 2026-04-23 11:21 | 55.06433 | 13.87450 | 26420 ft | 452 kts | 126° |
| 2026-04-23 11:21 | 55.04355 | 13.91580 | 26748 ft | 454 kts | 126° |
| 2026-04-23 11:22 | 55.02264 | 13.95723 | 27106 ft | 456 kts | 126° |
| 2026-04-23 11:22 | 55.00163 | 13.99885 | 27449 ft | 458 kts | 126° |
| 2026-04-23 11:22 | 54.98053 | 14.04063 | 27801 ft | 461 kts | 126° |
| 2026-04-23 11:22 | 54.95959 | 14.08203 | 28157 ft | 462 kts | 126° |
| 2026-04-23 11:23 | 54.93835 | 14.12396 | 28574 ft | 463 kts | 126° |
| 2026-04-23 11:23 | 54.91589 | 14.16448 | 28929 ft | 469 kts | 134° |
| 2026-04-23 11:23 | 54.89002 | 14.19961 | 29271 ft | 475 kts | 141° |
| 2026-04-23 11:23 | 54.86284 | 14.23255 | 29601 ft | 478 kts | 141° |
| 2026-04-23 11:24 | 54.83550 | 14.26553 | 30020 ft | 479 kts | 140° |
| 2026-04-23 11:24 | 54.80810 | 14.29854 | 30396 ft | 480 kts | 140° |
| 2026-04-23 11:24 | 54.78048 | 14.33099 | 30764 ft | 481 kts | 144° |
| 2026-04-23 11:24 | 54.75070 | 14.35797 | 31150 ft | 485 kts | 152° |
| 2026-04-23 11:25 | 54.71997 | 14.38207 | 31550 ft | 484 kts | 152° |
| 2026-04-23 11:25 | 54.68934 | 14.40608 | 31947 ft | 483 kts | 152° |
| 2026-04-23 11:25 | 54.65881 | 14.43007 | 32356 ft | 482 kts | 151° |
| 2026-04-23 11:25 | 54.62837 | 14.45403 | 32829 ft | 479 kts | 152° |
| 2026-04-23 11:26 | 54.59807 | 14.47776 | 33282 ft | 478 kts | 152° |
| 2026-04-23 11:26 | 54.56786 | 14.50135 | 33710 ft | 476 kts | 152° |
| 2026-04-23 11:26 | 54.53772 | 14.52487 | 34131 ft | 475 kts | 152° |
| 2026-04-23 11:26 | 54.50763 | 14.54837 | 34491 ft | 474 kts | 152° |
| 2026-04-23 11:27 | 54.47762 | 14.57178 | 34835 ft | 473 kts | 152° |
| 2026-04-23 11:27 | 54.44768 | 14.59509 | 35211 ft | 472 kts | 151° |
| 2026-04-23 11:27 | 54.41768 | 14.61836 | 35467 ft | 473 kts | 151° |
| 2026-04-23 11:27 | 54.38771 | 14.64160 | 35742 ft | 473 kts | 151° |
| 2026-04-23 11:28 | 54.35771 | 14.66482 | 36050 ft | 472 kts | 151° |
| 2026-04-23 11:28 | 54.32782 | 14.68789 | 36388 ft | 470 kts | 151° |
| 2026-04-23 11:28 | 54.29802 | 14.71082 | 36700 ft | 469 kts | 151° |
| 2026-04-23 11:28 | 54.26828 | 14.73370 | 36988 ft | 468 kts | 151° |
| 2026-04-23 11:29 | 54.23855 | 14.75654 | 37195 ft | 468 kts | 151° |
| 2026-04-23 11:29 | 54.17859 | 14.80258 | 37225 ft | 476 kts | 151° |
| 2026-04-23 11:30 | 54.11801 | 14.84894 | 37226 ft | 478 kts | 152° |
| 2026-04-23 11:30 | 54.05734 | 14.89505 | 37230 ft | 477 kts | 151° |
| 2026-04-23 11:31 | 53.99668 | 14.94096 | 37218 ft | 479 kts | 151° |
| 2026-04-23 11:31 | 53.93596 | 14.98694 | 37225 ft | 480 kts | 151° |
| 2026-04-23 11:32 | 53.87449 | 15.03334 | 37225 ft | 481 kts | 151° |
| 2026-04-23 11:32 | 53.81334 | 15.07930 | 37222 ft | 481 kts | 151° |
| 2026-04-23 11:33 | 53.75223 | 15.12505 | 37234 ft | 480 kts | 151° |
| 2026-04-23 11:33 | 53.69114 | 15.17073 | 37224 ft | 480 kts | 151° |
| 2026-04-23 11:34 | 53.63047 | 15.21603 | 37221 ft | 480 kts | 151° |
| 2026-04-23 11:34 | 53.56940 | 15.26138 | 37221 ft | 480 kts | 151° |
| 2026-04-23 11:35 | 53.50834 | 15.30649 | 37206 ft | 479 kts | 151° |
| 2026-04-23 11:35 | 53.44728 | 15.35150 | 37214 ft | 479 kts | 151° |
| 2026-04-23 11:36 | 53.38630 | 15.39630 | 37217 ft | 478 kts | 151° |
| 2026-04-23 11:36 | 53.32536 | 15.44094 | 37217 ft | 478 kts | 151° |
| 2026-04-23 11:37 | 53.26443 | 15.48546 | 37217 ft | 478 kts | 151° |
| 2026-04-23 11:37 | 53.20353 | 15.52989 | 37234 ft | 478 kts | 151° |
| 2026-04-23 11:38 | 53.14260 | 15.57416 | 37216 ft | 478 kts | 151° |
| 2026-04-23 11:38 | 53.08160 | 15.61835 | 37210 ft | 478 kts | 151° |
| 2026-04-23 11:39 | 53.02057 | 15.66249 | 37200 ft | 478 kts | 151° |
| 2026-04-23 11:39 | 52.95946 | 15.70635 | 37199 ft | 479 kts | 151° |
| 2026-04-23 11:40 | 52.89835 | 15.75008 | 37199 ft | 478 kts | 151° |
| 2026-04-23 11:40 | 52.83732 | 15.79375 | 37196 ft | 478 kts | 151° |
| 2026-04-23 11:41 | 52.77627 | 15.83739 | 37201 ft | 478 kts | 151° |
| 2026-04-23 11:41 | 52.71510 | 15.88085 | 37185 ft | 479 kts | 151° |
| 2026-04-23 11:42 | 52.65386 | 15.92418 | 37186 ft | 479 kts | 151° |
| 2026-04-23 11:42 | 52.60297 | 15.96014 | 37188 ft | 479 kts | 151° |
| 2026-04-23 11:43 | 52.54178 | 16.00330 | 37181 ft | 479 kts | 151° |
| 2026-04-23 11:43 | 52.48052 | 16.04627 | 37181 ft | 479 kts | 151° |
| 2026-04-23 11:44 | 52.41929 | 16.08922 | 37184 ft | 479 kts | 151° |
| 2026-04-23 11:44 | 52.35802 | 16.13212 | 37189 ft | 480 kts | 151° |
| 2026-04-23 11:45 | 52.29657 | 16.17486 | 37193 ft | 480 kts | 151° |
| 2026-04-23 11:45 | 52.23502 | 16.21743 | 37174 ft | 481 kts | 151° |
| 2026-04-23 11:46 | 52.17343 | 16.25995 | 37181 ft | 481 kts | 151° |
| 2026-04-23 11:46 | 52.11176 | 16.30250 | 37176 ft | 481 kts | 151° |
| 2026-04-23 11:47 | 52.05019 | 16.34495 | 37174 ft | 480 kts | 151° |
| 2026-04-23 11:47 | 51.98903 | 16.38691 | 37174 ft | 480 kts | 151° |
| 2026-04-23 11:48 | 51.92751 | 16.42899 | 37156 ft | 480 kts | 151° |
| 2026-04-23 11:48 | 51.86590 | 16.47096 | 37163 ft | 481 kts | 151° |
| 2026-04-23 11:49 | 51.80420 | 16.51290 | 37171 ft | 481 kts | 151° |
| 2026-04-23 11:49 | 51.74254 | 16.55471 | 37168 ft | 481 kts | 151° |
| 2026-04-23 11:50 | 51.68086 | 16.59624 | 37174 ft | 480 kts | 151° |
| 2026-04-23 11:50 | 51.61923 | 16.63763 | 37199 ft | 480 kts | 151° |
| 2026-04-23 11:51 | 51.55764 | 16.67912 | 37190 ft | 480 kts | 151° |
| 2026-04-23 11:51 | 51.49602 | 16.72042 | 37181 ft | 480 kts | 151° |
| 2026-04-23 11:52 | 51.43436 | 16.76150 | 37173 ft | 480 kts | 151° |
| 2026-04-23 11:52 | 51.37273 | 16.80254 | 37171 ft | 480 kts | 151° |
| 2026-04-23 11:53 | 51.31109 | 16.84351 | 37162 ft | 480 kts | 151° |
| 2026-04-23 11:53 | 51.24945 | 16.88434 | 37162 ft | 479 kts | 151° |
| 2026-04-23 11:54 | 51.18832 | 16.92467 | 37145 ft | 478 kts | 151° |
| 2026-04-23 11:54 | 51.12689 | 16.96503 | 37142 ft | 478 kts | 152° |
| 2026-04-23 11:55 | 51.06541 | 17.00539 | 37140 ft | 478 kts | 151° |
| 2026-04-23 11:55 | 51.00388 | 17.04566 | 37150 ft | 478 kts | 152° |
| 2026-04-23 11:56 | 50.94236 | 17.08573 | 37156 ft | 478 kts | 152° |
| 2026-04-23 11:56 | 50.88084 | 17.12576 | 37162 ft | 478 kts | 152° |
| 2026-04-23 11:57 | 50.81938 | 17.16572 | 37187 ft | 478 kts | 152° |
| 2026-04-23 11:57 | 50.75788 | 17.20548 | 37179 ft | 477 kts | 152° |
| 2026-04-23 11:58 | 50.69640 | 17.24504 | 37163 ft | 477 kts | 152° |
| 2026-04-23 11:58 | 50.63498 | 17.28450 | 37170 ft | 477 kts | 152° |
| 2026-04-23 11:59 | 50.57359 | 17.32386 | 37165 ft | 476 kts | 152° |
| 2026-04-23 11:59 | 50.51220 | 17.36318 | 37164 ft | 476 kts | 152° |
| 2026-04-23 12:00 | 50.45083 | 17.40237 | 37182 ft | 476 kts | 153° |
| 2026-04-23 12:00 | 50.38952 | 17.44122 | 37167 ft | 475 kts | 153° |
| 2026-04-23 12:01 | 50.32829 | 17.47998 | 37159 ft | 475 kts | 153° |
| 2026-04-23 12:01 | 50.26704 | 17.51866 | 37158 ft | 475 kts | 153° |
| 2026-04-23 12:02 | 50.20596 | 17.55784 | 37152 ft | 474 kts | 152° |
| 2026-04-23 12:02 | 50.14505 | 17.59748 | 37148 ft | 474 kts | 152° |
| 2026-04-23 12:03 | 50.08413 | 17.63700 | 37173 ft | 474 kts | 153° |
| 2026-04-23 12:03 | 50.02318 | 17.67621 | 37163 ft | 474 kts | 153° |
| 2026-04-23 12:04 | 49.96223 | 17.71504 | 37155 ft | 473 kts | 153° |
| 2026-04-23 12:04 | 49.90178 | 17.75364 | 37147 ft | 473 kts | 153° |
| 2026-04-23 12:05 | 49.84098 | 17.79243 | 37144 ft | 473 kts | 153° |
| 2026-04-23 12:05 | 49.78014 | 17.83108 | 37133 ft | 473 kts | 153° |
| 2026-04-23 12:06 | 49.71924 | 17.86953 | 37130 ft | 473 kts | 153° |
| 2026-04-23 12:06 | 49.62787 | 17.92718 | 37129 ft | 473 kts | 153° |
| 2026-04-23 12:07 | 49.56696 | 17.96556 | 37131 ft | 473 kts | 153° |
| 2026-04-23 12:07 | 49.50599 | 18.00385 | 37132 ft | 473 kts | 153° |
| 2026-04-23 12:08 | 49.44498 | 18.04198 | 37142 ft | 474 kts | 153° |
| 2026-04-23 12:08 | 49.38394 | 18.08003 | 37139 ft | 474 kts | 154° |
| 2026-04-23 12:09 | 49.32287 | 18.11804 | 37149 ft | 474 kts | 154° |
| 2026-04-23 12:09 | 49.26178 | 18.15592 | 37135 ft | 474 kts | 154° |
| 2026-04-23 12:10 | 49.20139 | 18.19575 | 37129 ft | 472 kts | 150° |
| 2026-04-23 12:10 | 49.14256 | 18.23983 | 37128 ft | 470 kts | 149° |
| 2026-04-23 12:11 | 49.08407 | 18.28437 | 37128 ft | 470 kts | 150° |
| 2026-04-23 12:11 | 49.02517 | 18.32770 | 37123 ft | 470 kts | 151° |
| 2026-04-23 12:12 | 48.96611 | 18.37022 | 37138 ft | 469 kts | 151° |
| 2026-04-23 12:12 | 48.90711 | 18.41259 | 37115 ft | 468 kts | 152° |
| 2026-04-23 12:13 | 48.84834 | 18.45498 | 37112 ft | 467 kts | 151° |
| 2026-04-23 12:13 | 48.78968 | 18.49738 | 37101 ft | 467 kts | 151° |
| 2026-04-23 12:14 | 48.73101 | 18.53965 | 37103 ft | 467 kts | 151° |
| 2026-04-23 12:14 | 48.67221 | 18.58140 | 37111 ft | 467 kts | 153° |
| 2026-04-23 12:15 | 48.61246 | 18.62016 | 37110 ft | 467 kts | 155° |
| 2026-04-23 12:15 | 48.55233 | 18.65716 | 37105 ft | 466 kts | 155° |
| 2026-04-23 12:16 | 48.49281 | 18.69428 | 37089 ft | 466 kts | 154° |
| 2026-04-23 12:16 | 48.43300 | 18.73201 | 37090 ft | 466 kts | 154° |
| 2026-04-23 12:17 | 48.37332 | 18.76977 | 37092 ft | 465 kts | 154° |
| 2026-04-23 12:17 | 48.31374 | 18.80728 | 37111 ft | 464 kts | 154° |
| 2026-04-23 12:18 | 48.25432 | 18.84461 | 37090 ft | 462 kts | 155° |
| 2026-04-23 12:18 | 48.19496 | 18.88162 | 37089 ft | 462 kts | 155° |
| 2026-04-23 12:19 | 48.13559 | 18.91852 | 37085 ft | 462 kts | 154° |
| 2026-04-23 12:19 | 48.07625 | 18.95547 | 37075 ft | 462 kts | 155° |
| 2026-04-23 12:20 | 48.01687 | 18.99235 | 37080 ft | 462 kts | 155° |
| 2026-04-23 12:20 | 47.95752 | 19.02923 | 37082 ft | 462 kts | 155° |
| 2026-04-23 12:21 | 47.89810 | 19.06593 | 37084 ft | 462 kts | 155° |
| 2026-04-23 12:21 | 47.83864 | 19.10239 | 37073 ft | 462 kts | 155° |
| 2026-04-23 12:22 | 47.77922 | 19.13889 | 37076 ft | 462 kts | 155° |
| 2026-04-23 12:22 | 47.71984 | 19.17538 | 37070 ft | 462 kts | 155° |
| 2026-04-23 12:23 | 47.66040 | 19.21174 | 37066 ft | 462 kts | 155° |
| 2026-04-23 12:23 | 47.60089 | 19.24804 | 37080 ft | 463 kts | 155° |
| 2026-04-23 12:24 | 47.54135 | 19.28428 | 37074 ft | 463 kts | 155° |
| 2026-04-23 12:24 | 47.48177 | 19.32041 | 37072 ft | 463 kts | 155° |
| 2026-04-23 12:25 | 47.42217 | 19.35642 | 37070 ft | 463 kts | 155° |
| 2026-04-23 12:25 | 47.36294 | 19.39224 | 37068 ft | 463 kts | 155° |
| 2026-04-23 12:26 | 47.30330 | 19.42822 | 37089 ft | 463 kts | 155° |
| 2026-04-23 12:26 | 47.24362 | 19.46411 | 37080 ft | 463 kts | 155° |
| 2026-04-23 12:27 | 47.18393 | 19.49990 | 37078 ft | 463 kts | 155° |
| 2026-04-23 12:27 | 47.12427 | 19.53558 | 37066 ft | 463 kts | 155° |
| 2026-04-23 12:28 | 47.06460 | 19.57114 | 37064 ft | 463 kts | 155° |
| 2026-04-23 12:28 | 47.00490 | 19.60661 | 37063 ft | 463 kts | 155° |
| 2026-04-23 12:29 | 46.94522 | 19.64214 | 37080 ft | 463 kts | 155° |
| 2026-04-23 12:29 | 46.88552 | 19.67761 | 37068 ft | 463 kts | 155° |
| 2026-04-23 12:30 | 46.82581 | 19.71278 | 37076 ft | 463 kts | 155° |
| 2026-04-23 12:30 | 46.76610 | 19.74793 | 37072 ft | 463 kts | 155° |
| 2026-04-23 12:31 | 46.70640 | 19.78305 | 37072 ft | 463 kts | 155° |
| 2026-04-23 12:31 | 46.65635 | 19.81239 | 37072 ft | 462 kts | 155° |
| 2026-04-23 12:32 | 46.59710 | 19.84713 | 37081 ft | 462 kts | 155° |
| 2026-04-23 12:32 | 46.53742 | 19.88204 | 37076 ft | 462 kts | 155° |
| 2026-04-23 12:33 | 46.50752 | 19.89947 | 36448 ft | 466 kts | 155° |
| 2026-04-23 12:33 | 46.47713 | 19.91716 | 35484 ft | 474 kts | 155° |
| 2026-04-23 12:33 | 46.44636 | 19.93504 | 34671 ft | 479 kts | 154° |
| 2026-04-23 12:33 | 46.41546 | 19.95296 | 34064 ft | 477 kts | 154° |
| 2026-04-23 12:34 | 46.38471 | 19.97076 | 33379 ft | 475 kts | 154° |
| 2026-04-23 12:34 | 46.35404 | 19.98850 | 32724 ft | 473 kts | 155° |
| 2026-04-23 12:34 | 46.32345 | 20.00598 | 32075 ft | 472 kts | 155° |
| 2026-04-23 12:34 | 46.29294 | 20.02308 | 31472 ft | 469 kts | 155° |
| 2026-04-23 12:35 | 46.26263 | 20.03981 | 30976 ft | 464 kts | 156° |
| 2026-04-23 12:35 | 46.23263 | 20.05624 | 30482 ft | 459 kts | 156° |
| 2026-04-23 12:35 | 46.20295 | 20.07252 | 29970 ft | 454 kts | 155° |
| 2026-04-23 12:35 | 46.17345 | 20.08814 | 29392 ft | 450 kts | 160° |
| 2026-04-23 12:36 | 46.14294 | 20.09807 | 28839 ft | 449 kts | 169° |
| 2026-04-23 12:36 | 46.11206 | 20.10380 | 28291 ft | 445 kts | 170° |
| 2026-04-23 12:36 | 46.08148 | 20.10932 | 27758 ft | 441 kts | 170° |
| 2026-04-23 12:36 | 46.05117 | 20.11476 | 27230 ft | 437 kts | 170° |
| 2026-04-23 12:37 | 46.02113 | 20.12015 | 26715 ft | 433 kts | 170° |
| 2026-04-23 12:37 | 45.99137 | 20.12550 | 26206 ft | 429 kts | 170° |
| 2026-04-23 12:37 | 45.96183 | 20.13081 | 25702 ft | 426 kts | 170° |
| 2026-04-23 12:37 | 45.93253 | 20.13606 | 25225 ft | 423 kts | 170° |
| 2026-04-23 12:38 | 45.90344 | 20.14131 | 24741 ft | 420 kts | 169° |
| 2026-04-23 12:38 | 45.87452 | 20.14654 | 24266 ft | 418 kts | 169° |
| 2026-04-23 12:38 | 45.84575 | 20.15173 | 23801 ft | 416 kts | 169° |
| 2026-04-23 12:38 | 45.81710 | 20.15687 | 23284 ft | 414 kts | 169° |
| 2026-04-23 12:39 | 45.78855 | 20.16202 | 22737 ft | 413 kts | 169° |
| 2026-04-23 12:39 | 45.76011 | 20.16714 | 22198 ft | 411 kts | 169° |
| 2026-04-23 12:39 | 45.73185 | 20.17221 | 21673 ft | 408 kts | 169° |
| 2026-04-23 12:39 | 45.70375 | 20.17725 | 21157 ft | 406 kts | 169° |
| 2026-04-23 12:40 | 45.67579 | 20.18223 | 20645 ft | 404 kts | 169° |
| 2026-04-23 12:40 | 45.64799 | 20.18719 | 20151 ft | 401 kts | 169° |
| 2026-04-23 12:40 | 45.62035 | 20.19212 | 19660 ft | 399 kts | 169° |
| 2026-04-23 12:40 | 45.59289 | 20.19698 | 19184 ft | 396 kts | 169° |
| 2026-04-23 12:41 | 45.56562 | 20.20181 | 18710 ft | 394 kts | 169° |
| 2026-04-23 12:41 | 45.53892 | 20.20850 | 18237 ft | 385 kts | 158° |
| 2026-04-23 12:41 | 45.51445 | 20.22241 | 17829 ft | 375 kts | 152° |
| 2026-04-23 12:41 | 45.49064 | 20.23690 | 17442 ft | 370 kts | 152° |
| 2026-04-23 12:42 | 45.46712 | 20.25120 | 17042 ft | 365 kts | 152° |
| 2026-04-23 12:42 | 45.44387 | 20.26537 | 16654 ft | 362 kts | 152° |
| 2026-04-23 12:42 | 45.42076 | 20.27949 | 16266 ft | 360 kts | 152° |
| 2026-04-23 12:42 | 45.39777 | 20.29354 | 15883 ft | 359 kts | 153° |
| 2026-04-23 12:43 | 45.37493 | 20.30749 | 15508 ft | 357 kts | 153° |
| 2026-04-23 12:43 | 45.35216 | 20.32135 | 15136 ft | 355 kts | 153° |
| 2026-04-23 12:43 | 45.32951 | 20.33510 | 14764 ft | 353 kts | 154° |
| 2026-04-23 12:43 | 45.30703 | 20.34876 | 14382 ft | 350 kts | 154° |
| 2026-04-23 12:44 | 45.28469 | 20.36232 | 14035 ft | 349 kts | 154° |
| 2026-04-23 12:44 | 45.26242 | 20.37582 | 13655 ft | 347 kts | 154° |
| 2026-04-23 12:44 | 45.24027 | 20.38924 | 13256 ft | 345 kts | 155° |
| 2026-04-23 12:44 | 45.21822 | 20.40259 | 12854 ft | 343 kts | 155° |
| 2026-04-23 12:45 | 45.19631 | 20.41586 | 12465 ft | 342 kts | 155° |
| 2026-04-23 12:45 | 45.17450 | 20.42905 | 12086 ft | 340 kts | 155° |
| 2026-04-23 12:45 | 45.15282 | 20.44213 | 11702 ft | 338 kts | 155° |
| 2026-04-23 12:45 | 45.13126 | 20.45511 | 11321 ft | 336 kts | 155° |
| 2026-04-23 12:46 | 45.10981 | 20.46800 | 10946 ft | 334 kts | 155° |
| 2026-04-23 12:46 | 45.08851 | 20.48084 | 10577 ft | 332 kts | 155° |
| 2026-04-23 12:46 | 45.06732 | 20.49363 | 10211 ft | 330 kts | 156° |
| 2026-04-23 12:46 | 45.04627 | 20.50632 | 9832 ft | 328 kts | 156° |
| 2026-04-23 12:47 | 45.02528 | 20.51892 | 9428 ft | 326 kts | 156° |
| 2026-04-23 12:47 | 45.00445 | 20.53143 | 9026 ft | 325 kts | 156° |
| 2026-04-23 12:47 | 44.98336 | 20.54248 | 8614 ft | 323 kts | 168° |
| 2026-04-23 12:47 | 44.96136 | 20.54303 | 8067 ft | 312 kts | 194° |
| 2026-04-23 12:48 | 44.94161 | 20.53181 | 7429 ft | 303 kts | 213° |
| 2026-04-23 12:48 | 44.92444 | 20.51583 | 6816 ft | 298 kts | 220° |
| 2026-04-23 12:48 | 44.90866 | 20.49733 | 6180 ft | 293 kts | 225° |
| 2026-04-23 12:48 | 44.89350 | 20.47834 | 5520 ft | 290 kts | 226° |
| 2026-04-23 12:49 | 44.87849 | 20.45954 | 4890 ft | 287 kts | 226° |
| 2026-04-23 12:49 | 44.86369 | 20.44099 | 4328 ft | 281 kts | 225° |
| 2026-04-23 12:49 | 44.84941 | 20.42287 | 3982 ft | 269 kts | 226° |
| 2026-04-23 12:49 | 44.83572 | 20.40588 | 3730 ft | 256 kts | 226° |
| 2026-04-23 12:50 | 44.82273 | 20.38972 | 3457 ft | 242 kts | 226° |
| 2026-04-23 12:50 | 44.81026 | 20.37464 | 3225 ft | 231 kts | 225° |
| 2026-04-23 12:50 | 44.79787 | 20.36097 | 2973 ft | 222 kts | 222° |
| 2026-04-23 12:50 | 44.78571 | 20.34812 | 2658 ft | 214 kts | 222° |
| 2026-04-23 12:51 | 44.77397 | 20.33622 | 2542 ft | 204 kts | 220° |
| 2026-04-23 12:51 | 44.76219 | 20.32553 | 2541 ft | 193 kts | 209° |
| 2026-04-23 12:51 | 44.74943 | 20.32303 | 2555 ft | 184 kts | 169° |
| 2026-04-23 12:51 | 44.73915 | 20.33229 | 2428 ft | 174 kts | 123° |
| 2026-04-23 12:52 | 44.73639 | 20.34786 | 2242 ft | 164 kts | 76° |
| 2026-04-23 12:52 | 44.74106 | 20.36098 | 2113 ft | 143 kts | 37° |
| 2026-04-23 12:52 | 44.74857 | 20.36997 | 1995 ft | 141 kts | 28° |
| 2026-04-23 12:52 | 44.75687 | 20.37681 | 1753 ft | 135 kts | 18° |
| 2026-04-23 12:53 | 44.76566 | 20.38086 | 1556 ft | 131 kts | 2° |
| 2026-04-23 12:53 | 44.77458 | 20.38117 | 1335 ft | 127 kts | 346° |
| 2026-04-23 12:53 | 44.78283 | 20.37703 | 1231 ft | 128 kts | 328° |
| 2026-04-23 12:53 | 44.79011 | 20.36968 | 1157 ft | 129 kts | 316° |
| 2026-04-23 12:54 | 44.79588 | 20.35972 | 959 ft | 134 kts | 303° |
| 2026-04-23 12:54 | 44.80087 | 20.34874 | 744 ft | 132 kts | 301° |
| 2026-04-23 12:54 | 44.80565 | 20.33796 | 620 ft | 129 kts | 303° |
| 2026-04-23 12:54 | 44.81044 | 20.32722 | 418 ft | 130 kts | 302° |
| 2026-04-23 12:55 | 44.81507 | 20.31675 | 323 ft | 114 kts | 303° |
| 2026-04-23 12:55 | 44.81846 | 20.30915 | 320 ft | 67 kts | 302° |
| 2026-04-23 12:55 | 44.82045 | 20.30466 | 319 ft | 50 kts | 302° |
| 2026-04-23 12:55 | 44.82164 | 20.30072 | 320 ft | 34 kts | 269° |
| 2026-04-23 12:56 | 44.82167 | 20.29861 | 322 ft | 20 kts | 272° |
| 2026-04-23 12:56 | 44.82170 | 20.29759 | 322 ft | 9 kts | 274° |
| 2026-04-23 12:56 | 44.82195 | 20.29672 | 322 ft | 10 kts | 300° |
| 2026-04-23 12:56 | 44.82169 | 20.29588 | 323 ft | 11 kts | 212° |
| 2026-04-23 12:57 | 44.82093 | 20.29520 | 321 ft | 15 kts | 212° |
| 2026-04-23 12:57 | 44.82008 | 20.29446 | 320 ft | 7 kts | 212° |
| 2026-04-23 12:57 | 44.81999 | 20.29385 | 322 ft | 8 kts | 298° |
| 2026-04-23 12:57 | 44.82014 | 20.29350 | 322 ft | 0 kts | 301° |